Time;durP1;ratioP1;P1;durP2;ratioP2;P2;SDS_P1;SDS_P2;PMS_P1;PMS_P2;Temp;Humidity;BMP_temperature;BMP_pressure;BME280_temperature;BME280_humidity;BME280_pressure;Samples;Min_cycle;Max_cycle;Signal;HPM_P1;HPM_P2
2023/06/04 00:00:14;;;;;;;5.18;3.08;;;;;;;19.11;64.74;95341.28;5038562;28;20037;-80
2023/06/04 00:02:40;;;;;;;5.95;2.75;;;;;;;19.25;64.69;95369.50;5055173;28;20045;-78
2023/06/04 00:05:06;;;;;;;3.75;2.80;;;;;;;19.32;64.54;95371.69;5055719;28;20497;-78
2023/06/04 00:07:31;;;;;;;5.20;2.72;;;;;;;19.41;64.32;95393.94;5022815;28;20057;-78
2023/06/04 00:09:57;;;;;;;5.10;2.90;;;;;;;19.24;64.72;95372.50;5018593;28;20107;-78
2023/06/04 00:12:22;;;;;;;6.65;3.10;;;;;;;19.38;64.40;95385.72;5035234;28;20025;-78
2023/06/04 00:14:48;;;;;;;4.22;2.60;;;;;;;19.25;64.27;95364.13;5019620;28;20120;-78
2023/06/04 00:17:13;;;;;;;7.88;2.90;;;;;;;19.05;64.26;95334.50;5037238;28;20033;-78
2023/06/04 00:19:40;;;;;;;4.20;2.97;;;;;;;19.39;64.44;95390.78;5055969;28;20112;-78
2023/06/04 00:22:06;;;;;;;4.25;3.13;;;;;;;19.19;64.25;95357.38;5056013;28;20021;-79
2023/06/04 00:24:32;;;;;;;3.35;2.40;;;;;;;19.31;64.17;95383.56;5056380;28;20064;-78
2023/06/04 00:26:57;;;;;;;4.80;3.00;;;;;;;19.28;64.68;95381.53;5036986;28;20055;-78
2023/06/04 00:29:23;;;;;;;5.75;3.40;;;;;;;19.27;64.86;95379.94;5037180;28;20024;-79
2023/06/04 00:31:48;;;;;;;7.15;3.00;;;;;;;19.21;64.80;95363.22;5037535;28;20152;-79
2023/06/04 00:34:14;;;;;;;7.05;3.03;;;;;;;19.18;65.45;95374.59;5037591;28;20100;-78
2023/06/04 00:36:40;;;;;;;3.70;3.00;;;;;;;19.04;65.27;95349.84;5036562;28;20059;-78
2023/06/04 00:39:05;;;;;;;5.90;3.22;;;;;;;19.01;65.67;95341.63;5036154;28;20036;-78
2023/06/04 00:41:31;;;;;;;4.05;3.33;;;;;;;19.10;65.67;95358.50;5037415;28;20044;-78
2023/06/04 00:43:56;;;;;;;8.52;3.47;;;;;;;19.15;65.69;95372.53;5055477;28;20033;-78
2023/06/04 00:46:26;;;;;;;6.65;3.45;;;;;;;18.87;66.05;95331.88;5020950;28;20032;-78
2023/06/04 00:48:53;;;;;;;4.95;3.03;;;;;;;19.15;66.02;95377.94;5034488;28;20037;-78
2023/06/04 00:51:20;;;;;;;5.22;2.90;;;;;;;19.17;65.99;95375.72;5036483;28;20033;-79
2023/06/04 00:53:45;;;;;;;6.28;3.67;;;;;;;19.13;66.20;95368.63;5034215;28;20418;-78
2023/06/04 00:56:13;;;;;;;8.30;3.38;;;;;;;19.12;65.81;95372.41;5018061;28;20044;-78
2023/06/04 00:58:39;;;;;;;7.80;3.30;;;;;;;19.18;66.27;95369.22;5036223;28;20029;-78
2023/06/04 01:01:10;;;;;;;4.45;3.00;;;;;;;19.17;66.27;95378.41;5054016;28;20035;-78
2023/06/04 01:03:41;;;;;;;9.30;2.95;;;;;;;19.18;66.25;95373.81;5054788;28;20107;-78
2023/06/04 01:06:33;;;;;;;5.38;2.92;;;;;;;19.15;66.25;95369.06;5054575;28;20044;-78
2023/06/04 01:09:00;;;;;;;7.22;3.10;;;;;;;18.82;66.44;95321.31;5027264;28;20067;-79
2023/06/04 01:11:36;;;;;;;9.15;3.10;;;;;;;18.89;66.80;95347.69;5019926;28;20037;-78
2023/06/04 01:14:03;;;;;;;4.85;3.03;;;;;;;18.87;66.59;95333.78;5034824;28;20039;-78
2023/06/04 01:16:34;;;;;;;4.95;2.72;;;;;;;19.10;66.75;95374.63;5053777;28;20423;-78
2023/06/04 01:19:02;;;;;;;6.95;2.75;;;;;;;19.11;66.54;95371.63;5035653;28;20040;-78
2023/06/04 01:21:35;;;;;;;6.10;2.75;;;;;;;18.90;66.73;95338.50;5035894;28;20033;-79
2023/06/04 01:24:04;;;;;;;6.35;3.30;;;;;;;18.98;67.03;95371.84;5054381;28;20514;-79
2023/06/04 01:26:31;;;;;;;3.55;2.42;;;;;;;18.92;66.85;95351.63;5036030;28;20420;-78
2023/06/04 01:28:58;;;;;;;6.72;3.50;;;;;;;18.97;66.56;95357.63;5044157;28;20099;-78
2023/06/04 01:31:25;;;;;;;4.03;2.78;;;;;;;18.68;66.38;95315.34;5026364;28;20056;-79
2023/06/04 01:33:58;;;;;;;7.57;2.75;;;;;;;19.03;66.46;95377.81;5036954;28;20068;-79
2023/06/04 01:36:24;;;;;;;5.13;2.63;;;;;;;19.02;66.40;95378.13;5035932;28;20029;-79
2023/06/04 01:38:50;;;;;;;4.60;2.38;;;;;;;19.01;66.37;95390.78;5021195;28;20034;-80
2023/06/04 01:41:16;;;;;;;4.22;2.53;;;;;;;18.93;66.21;95369.31;5033782;28;20099;-79
2023/06/04 01:43:44;;;;;;;4.65;2.97;;;;;;;18.88;66.32;95362.22;5034028;28;20424;-79
2023/06/04 01:46:10;;;;;;;4.93;2.40;;;;;;;18.97;66.21;95376.44;5033040;28;20033;-80
2023/06/04 01:48:36;;;;;;;5.25;2.90;;;;;;;18.70;66.37;95344.56;5050648;28;20530;-80
2023/06/04 01:51:02;;;;;;;4.47;2.50;;;;;;;17.87;66.11;95223.28;5029509;28;20636;-80
2023/06/04 01:53:28;;;;;;;5.63;2.35;;;;;;;18.89;66.22;95382.63;5034810;28;20036;-80
2023/06/04 01:55:54;;;;;;;4.78;2.65;;;;;;;18.85;66.33;95371.69;5050782;28;20105;-80
2023/06/04 01:58:26;;;;;;;5.93;2.55;;;;;;;18.80;66.21;95361.13;5032535;28;20033;-80
2023/06/04 02:00:54;;;;;;;6.18;2.70;;;;;;;18.89;66.17;95383.41;5032381;28;20037;-80
2023/06/04 02:03:20;;;;;;;2.72;2.15;;;;;;;18.85;66.19;95376.28;5032511;28;20596;-80
2023/06/04 02:05:46;;;;;;;3.13;2.13;;;;;;;18.96;66.24;95396.34;5032167;28;20040;-80
2023/06/04 02:08:18;;;;;;;6.63;2.78;;;;;;;18.86;66.77;95397.47;5036094;28;20443;-80
2023/06/04 02:10:48;;;;;;;3.78;2.38;;;;;;;18.92;66.59;95395.38;5028481;28;20061;-80
2023/06/04 02:13:14;;;;;;;7.45;2.50;;;;;;;18.83;66.56;95381.22;5032425;28;20102;-80
2023/06/04 02:15:40;;;;;;;8.18;2.80;;;;;;;18.88;66.60;95391.78;5032348;28;20040;-80
2023/06/04 02:18:20;;;;;;;6.45;2.72;;;;;;;18.36;66.69;95302.44;5032564;28;20041;-80
2023/06/04 02:20:47;;;;;;;5.57;2.80;;;;;;;18.59;66.56;95341.44;5032210;28;20491;-80
2023/06/04 02:23:13;;;;;;;5.00;2.40;;;;;;;18.96;66.75;95406.31;5032313;28;20033;-80
2023/06/04 02:25:39;;;;;;;3.45;2.40;;;;;;;18.31;66.83;95302.63;5042595;28;20044;-80
2023/06/04 02:28:04;;;;;;;4.53;2.83;;;;;;;18.75;67.59;95396.25;5030252;28;20029;-80
2023/06/04 02:30:30;;;;;;;5.88;2.40;;;;;;;18.60;67.83;95372.56;5030100;28;20029;-80
2023/06/04 02:32:56;;;;;;;7.53;2.95;;;;;;;18.78;67.60;95400.16;5011806;28;20865;-80
2023/06/04 02:35:23;;;;;;;6.95;2.42;;;;;;;18.64;67.51;95381.56;5043503;28;20036;-80
2023/06/04 02:37:49;;;;;;;5.45;2.85;;;;;;;18.88;67.56;95421.34;5036149;28;20116;-80
2023/06/04 02:40:15;;;;;;;4.05;2.80;;;;;;;18.89;67.76;95423.72;5045228;28;20537;-80
2023/06/04 02:42:40;;;;;;;4.78;2.83;;;;;;;18.76;67.50;95408.56;5049676;28;20064;-80
2023/06/04 02:45:06;;;;;;;5.18;3.03;;;;;;;18.54;67.95;95400.66;5049705;28;20029;-80
2023/06/04 02:47:32;;;;;;;3.05;2.28;;;;;;;18.65;67.62;95401.94;5013038;28;20037;-80
2023/06/04 02:49:57;;;;;;;7.15;3.67;;;;;;;18.73;67.58;95419.94;5031978;28;20033;-80
2023/06/04 02:52:25;;;;;;;4.13;2.63;;;;;;;18.29;68.65;95353.94;5031578;28;20025;-80
2023/06/04 02:54:50;;;;;;;6.07;3.10;;;;;;;18.59;68.94;95400.53;5032097;28;20096;-80
2023/06/04 02:57:16;;;;;;;5.68;3.05;;;;;;;18.60;69.39;95401.34;5032347;28;20591;-80
2023/06/04 02:59:42;;;;;;;6.18;3.17;;;;;;;18.87;69.26;95436.66;5025080;28;20032;-80
2023/06/04 03:02:07;;;;;;;4.63;3.00;;;;;;;18.69;69.57;95410.94;5019964;28;20053;-80
2023/06/04 03:04:34;;;;;;;6.22;2.75;;;;;;;18.76;69.07;95427.38;5049862;28;20419;-80
2023/06/04 03:07:03;;;;;;;4.15;2.65;;;;;;;18.91;68.95;95446.78;5050021;28;20033;-80
2023/06/04 03:09:30;;;;;;;5.45;2.42;;;;;;;18.91;68.78;95447.59;5049841;28;20044;-80
2023/06/04 03:11:59;;;;;;;3.38;2.90;;;;;;;18.92;68.59;95451.81;5031602;28;20091;-80
2023/06/04 03:14:32;;;;;;;6.50;2.58;;;;;;;18.84;67.91;95429.22;5033424;28;20033;-80
2023/06/04 03:17:10;;;;;;;4.20;2.40;;;;;;;18.39;67.94;95363.56;5029760;28;20095;-80
2023/06/04 03:19:40;;;;;;;5.47;3.08;;;;;;;18.69;67.78;95407.47;5051373;28;20066;-80
2023/06/04 03:22:07;;;;;;;3.28;2.20;;;;;;;18.79;68.00;95429.41;5037611;28;20029;-80
2023/06/04 03:24:38;;;;;;;5.72;3.15;;;;;;;18.44;68.11;95383.00;5035122;28;20459;-80
2023/06/04 03:27:05;;;;;;;6.97;3.17;;;;;;;18.95;67.77;95459.25;5035689;28;20557;-80
2023/06/04 03:29:31;;;;;;;4.75;2.55;;;;;;;18.61;68.00;95398.34;5035653;28;20025;-79
2023/06/04 03:31:57;;;;;;;4.72;2.80;;;;;;;18.76;67.88;95426.59;5053585;28;20040;-80
2023/06/04 03:34:27;;;;;;;5.53;2.97;;;;;;;18.78;67.91;95441.25;5053089;28;20028;-80
2023/06/04 03:36:55;;;;;;;6.82;3.25;;;;;;;18.95;67.72;95469.22;5022577;28;20030;-80
2023/06/04 03:39:21;;;;;;;9.88;2.88;;;;;;;18.93;67.72;95460.69;5033276;28;20025;-80
2023/06/04 03:41:47;;;;;;;5.03;2.70;;;;;;;18.71;67.63;95440.16;5031896;28;20078;-80
2023/06/04 03:44:14;;;;;;;4.13;2.40;;;;;;;18.68;67.67;95424.72;5035100;28;20515;-79
2023/06/04 03:46:40;;;;;;;5.88;2.45;;;;;;;18.60;67.75;95422.81;5035367;28;20036;-80
2023/06/04 03:49:05;;;;;;;3.17;2.50;;;;;;;18.72;67.87;95442.53;5034751;28;20029;-80
2023/06/04 03:51:32;;;;;;;5.28;2.47;;;;;;;18.87;68.25;95473.50;5016997;28;20148;-80
2023/06/04 03:53:58;;;;;;;3.50;2.67;;;;;;;18.82;67.94;95460.25;5052811;28;20040;-80
2023/06/04 03:56:26;;;;;;;3.08;2.40;;;;;;;18.24;68.01;95364.81;5035136;28;20024;-80
2023/06/04 03:58:52;;;;;;;3.13;2.45;;;;;;;18.65;68.16;95428.81;5047673;28;20037;-80
2023/06/04 04:01:18;;;;;;;6.80;2.65;;;;;;;18.92;68.01;95470.63;5039430;28;20032;-80
2023/06/04 04:03:48;;;;;;;4.88;3.05;;;;;;;18.92;67.92;95476.00;5034681;28;20471;-80
2023/06/04 04:06:14;;;;;;;4.55;2.50;;;;;;;18.93;68.24;95480.28;5043047;28;20133;-80
2023/06/04 04:08:42;;;;;;;6.47;2.70;;;;;;;18.63;68.42;95433.69;5025021;28;20036;-80
2023/06/04 04:11:08;;;;;;;3.63;2.75;;;;;;;18.83;68.18;95459.13;5034631;28;20573;-80
2023/06/04 04:13:33;;;;;;;5.18;2.67;;;;;;;18.41;68.23;95397.03;5034915;28;20459;-80
2023/06/04 04:15:59;;;;;;;7.68;3.30;;;;;;;18.59;68.21;95422.03;5052199;28;20049;-80
2023/06/04 04:18:24;;;;;;;3.33;2.70;;;;;;;18.71;68.42;95446.34;5034452;28;20029;-79
2023/06/04 04:20:50;;;;;;;7.97;3.53;;;;;;;18.91;68.35;95474.47;5034671;28;20032;-80
2023/06/04 04:23:16;;;;;;;6.22;3.05;;;;;;;18.91;68.25;95477.16;5034559;28;20021;-80
2023/06/04 04:25:45;;;;;;;5.75;3.25;;;;;;;18.71;68.18;95440.97;5034280;28;20067;-80
2023/06/04 04:28:11;;;;;;;6.30;3.47;;;;;;;18.89;68.19;95473.97;5034449;28;20032;-80
2023/06/04 04:30:37;;;;;;;3.33;2.85;;;;;;;18.81;68.23;95450.59;5052447;28;20049;-80
2023/06/04 04:33:04;;;;;;;5.95;3.67;;;;;;;19.09;67.95;95489.44;5028185;28;20125;-80
2023/06/04 04:35:32;;;;;;;6.40;3.08;;;;;;;18.97;67.99;95464.31;5021899;28;20835;-80
2023/06/04 04:37:58;;;;;;;5.97;3.45;;;;;;;18.94;68.08;95465.75;5052172;28;20093;-80
2023/06/04 04:40:24;;;;;;;6.20;3.20;;;;;;;18.97;67.63;95467.00;5034508;28;20028;-80
2023/06/04 04:42:50;;;;;;;4.55;3.17;;;;;;;18.41;68.26;95394.34;5052138;28;20112;-80
2023/06/04 04:45:17;;;;;;;5.28;3.10;;;;;;;18.49;68.31;95420.41;5052273;28;20475;-80
2023/06/04 04:47:42;;;;;;;8.57;3.22;;;;;;;18.62;67.92;95412.53;5034044;28;20060;-80
2023/06/04 04:50:08;;;;;;;8.18;3.72;;;;;;;18.77;68.18;95444.25;5018667;28;20061;-79
2023/06/04 04:52:33;;;;;;;4.55;3.17;;;;;;;19.00;68.17;95482.47;5032230;28;20037;-80
2023/06/04 04:54:59;;;;;;;11.25;3.65;;;;;;;18.35;68.14;95384.88;5032713;28;20067;-80
2023/06/04 04:57:24;;;;;;;10.43;3.88;;;;;;;18.59;68.57;95421.25;5033831;28;20033;-80
2023/06/04 04:59:50;;;;;;;8.45;3.55;;;;;;;19.08;68.21;95487.06;5034193;28;20037;-80
2023/06/04 05:02:16;;;;;;;8.88;4.10;;;;;;;18.50;67.76;95383.59;5033486;28;20045;-80
2023/06/04 05:04:41;;;;;;;6.18;4.00;;;;;;;18.84;67.70;95436.53;5051729;28;20062;-80
2023/06/04 05:07:07;;;;;;;7.28;4.00;;;;;;;19.22;67.50;95493.06;5027155;28;20040;-80
2023/06/04 05:09:32;;;;;;;6.88;3.90;;;;;;;19.26;67.50;95496.66;5031520;28;20060;-80
2023/06/04 05:11:57;;;;;;;11.18;4.13;;;;;;;18.97;67.38;95449.00;5031755;28;20399;-81
2023/06/04 05:14:23;;;;;;;7.10;3.72;;;;;;;18.95;67.46;95450.41;5031248;28;20535;-80
2023/06/04 05:16:48;;;;;;;6.43;4.22;;;;;;;19.25;67.76;95495.09;5031225;28;20091;-80
2023/06/04 05:19:16;;;;;;;9.95;4.35;;;;;;;18.63;67.27;95392.63;5032094;28;20060;-80
2023/06/04 05:21:43;;;;;;;13.45;4.05;;;;;;;19.13;67.37;95460.81;5044647;28;20043;-80
2023/06/04 05:24:09;;;;;;;11.50;4.35;;;;;;;19.23;67.12;95470.41;5051494;28;20032;-80
2023/06/04 05:26:34;;;;;;;7.60;4.07;;;;;;;19.48;66.99;95493.00;5033179;28;20033;-80
2023/06/04 05:29:00;;;;;;;6.20;3.97;;;;;;;19.65;66.72;95509.09;5051430;28;20033;-80
2023/06/04 05:31:26;;;;;;;8.68;4.25;;;;;;;19.58;66.66;95473.81;5033130;28;20096;-80
2023/06/04 05:33:52;;;;;;;9.00;4.40;;;;;;;19.79;66.51;95498.88;5031339;28;20033;-80
2023/06/04 05:36:17;;;;;;;6.95;4.13;;;;;;;19.74;66.26;95501.78;5051144;28;20036;-80
2023/06/04 05:38:43;;;;;;;10.75;4.45;;;;;;;19.39;66.04;95459.94;5029631;28;20040;-80
2023/06/04 05:41:09;;;;;;;7.88;4.28;;;;;;;19.62;65.34;95480.91;5031135;28;20357;-80
2023/06/04 05:43:35;;;;;;;7.25;4.05;;;;;;;19.74;65.14;95496.38;5031055;28;20025;-80
2023/06/04 05:46:00;;;;;;;10.15;4.45;;;;;;;19.90;64.22;95515.47;5013083;28;20724;-80
2023/06/04 05:48:26;;;;;;;6.75;4.40;;;;;;;19.76;63.75;95490.69;5004597;28;20028;-80
2023/06/04 05:50:51;;;;;;;11.45;5.15;;;;;;;19.76;63.34;95486.06;5032875;28;20060;-80
2023/06/04 05:53:17;;;;;;;6.93;4.85;;;;;;;19.75;63.33;95489.91;5041576;28;20051;-80
2023/06/04 05:55:43;;;;;;;6.43;4.28;;;;;;;19.84;62.63;95506.78;5041639;28;20112;-80
2023/06/04 05:58:08;;;;;;;8.65;4.28;;;;;;;19.77;63.69;95519.16;5050489;28;20044;-80
2023/06/04 06:00:33;;;;;;;6.97;5.30;;;;;;;19.87;63.34;95524.19;5032836;28;20043;-80
2023/06/04 06:03:01;;;;;;;15.32;4.78;;;;;;;19.63;63.42;95495.16;5032754;28;20055;-80
2023/06/04 06:05:26;;;;;;;8.88;5.05;;;;;;;19.78;62.77;95512.66;5032693;28;20083;-80
2023/06/04 06:07:52;;;;;;;7.18;4.50;;;;;;;19.88;63.19;95539.22;5032279;28;20033;-80
2023/06/04 06:10:18;;;;;;;8.65;4.78;;;;;;;19.95;62.78;95543.00;5030514;28;20040;-80
2023/06/04 06:12:43;;;;;;;12.23;7.32;;;;;;;19.62;63.09;95493.56;5050840;28;20041;-80
2023/06/04 06:15:10;;;;;;;14.02;6.78;;;;;;;19.70;62.16;95506.19;5033041;28;20033;-80
2023/06/04 06:17:35;;;;;;;10.05;4.35;;;;;;;20.05;62.05;95549.91;5050549;28;20037;-80
2023/06/04 06:20:04;;;;;;;12.07;5.20;;;;;;;20.07;62.21;95547.66;5049818;28;20353;-80
2023/06/04 06:22:29;;;;;;;12.02;4.97;;;;;;;19.95;62.26;95518.75;5050474;28;20103;-80
2023/06/04 06:24:55;;;;;;;10.32;5.05;;;;;;;19.90;62.34;95518.16;5050698;28;20120;-80
2023/06/04 06:27:20;;;;;;;7.28;4.38;;;;;;;20.21;61.84;95542.06;5050186;28;20112;-80
2023/06/04 06:29:46;;;;;;;9.50;4.63;;;;;;;20.06;61.81;95527.28;5050163;28;20094;-80
2023/06/04 06:32:11;;;;;;;13.25;4.70;;;;;;;20.29;61.79;95541.25;5020965;28;20038;-80
2023/06/04 06:34:37;;;;;;;13.75;4.70;;;;;;;20.10;61.51;95497.78;5012753;28;20056;-80
2023/06/04 06:37:03;;;;;;;8.48;4.70;;;;;;;20.12;61.54;95528.66;5026769;28;20063;-80
2023/06/04 06:39:29;;;;;;;7.45;4.40;;;;;;;20.29;61.14;95538.56;5031669;28;20037;-80
2023/06/04 06:41:54;;;;;;;8.70;4.90;;;;;;;20.29;61.55;95536.63;5049832;28;20029;-80
2023/06/04 06:44:20;;;;;;;9.10;5.03;;;;;;;20.35;61.58;95535.38;5014685;28;20132;-80
2023/06/04 06:46:46;;;;;;;10.07;5.65;;;;;;;20.62;60.38;95550.22;5030012;28;20056;-80
2023/06/04 06:49:12;;;;;;;9.23;5.18;;;;;;;20.47;60.22;95502.31;5031156;28;20037;-80
2023/06/04 06:51:37;;;;;;;8.30;5.00;;;;;;;20.77;59.90;95546.16;5047651;28;20566;-80
2023/06/04 06:54:03;;;;;;;12.65;5.30;;;;;;;20.78;59.37;95526.97;5011724;28;20030;-80
2023/06/04 06:56:28;;;;;;;11.93;6.97;;;;;;;20.84;58.88;95534.84;5030287;28;20037;-80
2023/06/04 06:58:54;;;;;;;13.00;7.40;;;;;;;20.85;58.45;95526.44;5035666;28;20127;-80
2023/06/04 07:01:20;;;;;;;11.20;5.82;;;;;;;20.76;58.24;95510.31;5042452;28;20038;-80
2023/06/04 07:03:46;;;;;;;25.48;13.27;;;;;;;21.08;58.46;95551.94;5030916;28;20038;-80
2023/06/04 07:06:11;;;;;;;17.92;9.35;;;;;;;21.17;59.03;95562.69;5012184;28;20041;-80
2023/06/04 07:08:37;;;;;;;12.63;7.05;;;;;;;20.93;58.51;95516.69;5041413;28;20502;-80
2023/06/04 07:11:03;;;;;;;13.23;7.15;;;;;;;21.24;58.94;95559.44;5031593;28;20526;-80
2023/06/04 07:13:29;;;;;;;8.02;5.28;;;;;;;21.18;58.45;95554.25;5049859;28;20033;-81
2023/06/04 07:15:54;;;;;;;12.52;4.95;;;;;;;21.34;58.27;95551.72;5017728;28;20037;-80
2023/06/04 07:18:20;;;;;;;10.35;4.32;;;;;;;21.28;59.03;95565.75;5027215;28;20029;-80
2023/06/04 07:20:45;;;;;;;7.20;4.45;;;;;;;21.63;58.46;95580.47;5031759;28;20033;-80
2023/06/04 07:23:10;;;;;;;13.93;5.95;;;;;;;21.64;59.17;95583.97;5050029;28;20123;-80
2023/06/04 07:25:36;;;;;;;13.63;6.55;;;;;;;21.72;58.14;95569.59;5049275;28;20039;-80
2023/06/04 07:28:03;;;;;;;8.95;5.53;;;;;;;21.60;58.87;95570.34;5031808;28;20120;-80
2023/06/04 07:30:31;;;;;;;22.35;12.77;;;;;;;21.72;58.27;95556.88;5028875;28;20095;-80
2023/06/04 07:32:56;;;;;;;14.25;6.22;;;;;;;21.97;57.36;95583.97;5033525;28;20112;-80
2023/06/04 07:35:22;;;;;;;14.85;6.78;;;;;;;21.94;57.50;95580.78;5044910;28;20117;-80
2023/06/04 07:37:48;;;;;;;11.43;5.72;;;;;;;22.05;56.92;95566.88;5018054;28;20079;-80
2023/06/04 07:40:14;;;;;;;14.00;5.40;;;;;;;22.20;57.11;95585.88;5031815;28;20115;-80
2023/06/04 07:42:41;;;;;;;9.50;4.95;;;;;;;21.84;58.40;95575.00;5049409;28;20060;-80
2023/06/04 07:45:08;;;;;;;10.23;4.70;;;;;;;22.08;58.25;95598.59;5049702;28;20495;-80
2023/06/04 07:47:34;;;;;;;11.35;4.80;;;;;;;21.97;57.53;95573.91;5037890;28;20037;-80
2023/06/04 07:50:00;;;;;;;13.20;5.47;;;;;;;22.08;57.77;95585.88;5011924;28;20548;-80
2023/06/04 07:52:26;;;;;;;16.38;6.13;;;;;;;21.79;56.99;95567.91;5043055;28;20123;-81
2023/06/04 07:54:51;;;;;;;10.90;5.97;;;;;;;22.05;57.11;95574.97;5049984;28;20033;-80
2023/06/04 07:57:17;;;;;;;9.80;5.43;;;;;;;22.27;57.66;95583.44;5045118;28;20090;-80
2023/06/04 07:59:42;;;;;;;11.93;4.82;;;;;;;22.27;57.30;95553.72;5047389;28;20060;-80
2023/06/04 08:02:08;;;;;;;8.77;4.75;;;;;;;22.31;57.88;95570.81;5031580;28;20858;-80
2023/06/04 08:04:34;;;;;;;9.25;4.70;;;;;;;22.59;56.41;95575.50;5051021;28;20437;-80
2023/06/04 08:07:00;;;;;;;12.77;5.85;;;;;;;22.71;55.63;95607.94;5053307;28;20061;-80
2023/06/04 08:09:25;;;;;;;13.65;6.45;;;;;;;22.63;55.94;95577.19;5035164;28;20617;-80
2023/06/04 08:11:51;;;;;;;11.25;5.82;;;;;;;22.55;56.51;95561.09;5035241;28;20056;-80
2023/06/04 08:14:17;;;;;;;13.57;4.97;;;;;;;22.83;55.77;95580.91;5052791;28;20033;-80
2023/06/04 08:16:42;;;;;;;10.80;5.28;;;;;;;22.64;55.82;95584.19;5035256;28;20087;-80
2023/06/04 08:19:07;;;;;;;12.02;5.78;;;;;;;22.57;56.94;95577.78;5035090;28;20144;-81
2023/06/04 08:21:34;;;;;;;9.15;5.05;;;;;;;22.93;55.85;95587.75;5025144;28;20037;-80
2023/06/04 08:24:00;;;;;;;16.70;5.38;;;;;;;23.27;54.97;95598.00;5043731;28;20037;-80
2023/06/04 08:26:26;;;;;;;10.32;5.75;;;;;;;23.08;55.99;95571.59;5035345;28;20164;-80
2023/06/04 08:28:52;;;;;;;11.82;6.25;;;;;;;23.22;55.76;95592.06;5052863;28;20408;-80
2023/06/04 08:31:18;;;;;;;8.52;5.22;;;;;;;23.60;54.70;95597.00;5018178;28;20210;-80
2023/06/04 08:33:47;;;;;;;14.45;6.20;;;;;;;23.24;54.15;95535.69;5034369;28;20124;-80
2023/06/04 08:36:13;;;;;;;11.57;6.00;;;;;;;23.33;54.41;95580.41;5035946;28;20565;-80
2023/06/04 08:38:39;;;;;;;7.97;5.35;;;;;;;23.15;53.48;95522.31;5051652;28;20033;-80
2023/06/04 08:41:40;;;;;;;13.55;6.05;;;;;;;23.55;54.52;95606.19;5034453;28;20492;-80
2023/06/04 08:44:06;;;;;;;13.32;5.40;;;;;;;23.78;53.73;95612.59;5011617;28;20049;-80
2023/06/04 08:46:39;;;;;;;7.25;4.72;;;;;;;23.45;54.03;95558.69;5034567;28;20110;-80
2023/06/04 08:49:06;;;;;;;11.85;5.72;;;;;;;24.01;53.55;95612.81;5052779;28;20036;-80
2023/06/04 08:51:34;;;;;;;14.93;5.82;;;;;;;23.85;53.22;95591.13;5021411;28;20031;-80
2023/06/04 08:53:59;;;;;;;14.32;6.05;;;;;;;23.92;52.43;95630.34;5032074;28;20049;-80
2023/06/04 08:56:28;;;;;;;15.70;7.40;;;;;;;23.60;52.61;95595.09;5014391;28;20029;-80
2023/06/04 08:59:01;;;;;;;15.88;7.07;;;;;;;23.88;52.02;95621.38;5050065;28;20127;-80
2023/06/04 09:01:26;;;;;;;16.88;6.78;;;;;;;23.71;53.35;95620.53;5015876;28;20400;-80
2023/06/04 09:03:52;;;;;;;12.07;6.45;;;;;;;23.60;53.05;95584.25;5033855;28;20067;-81
2023/06/04 09:06:18;;;;;;;11.90;6.45;;;;;;;24.03;52.11;95626.78;5034010;28;20036;-80
2023/06/04 09:08:45;;;;;;;13.27;7.03;;;;;;;23.92;51.57;95595.94;5051949;28;20464;-80
2023/06/04 09:11:15;;;;;;;13.18;6.35;;;;;;;24.26;51.90;95637.84;5033669;28;20041;-80
2023/06/04 09:13:47;;;;;;;10.90;6.50;;;;;;;24.09;50.80;95611.06;5052463;28;20116;-81
2023/06/04 09:16:12;;;;;;;18.13;6.72;;;;;;;24.16;50.47;95620.16;5043247;28;20495;-81
2023/06/04 09:18:37;;;;;;;13.73;7.47;;;;;;;24.32;49.57;95595.00;5015204;28;20125;-81
2023/06/04 09:21:08;;;;;;;11.95;7.00;;;;;;;24.39;48.83;95625.00;5044593;28;20041;-81
2023/06/04 09:23:43;;;;;;;15.33;7.83;;;;;;;24.36;48.66;95631.13;5020344;28;20091;-81
2023/06/04 09:26:09;;;;;;;12.73;7.25;;;;;;;24.45;49.14;95618.97;5014123;28;20029;-81
2023/06/04 09:28:36;;;;;;;14.38;7.88;;;;;;;24.61;49.51;95629.78;5032637;28;20051;-81
2023/06/04 09:31:02;;;;;;;10.50;7.20;;;;;;;24.52;49.15;95629.19;5031924;28;20072;-81
2023/06/04 09:33:28;;;;;;;15.15;6.70;;;;;;;24.53;48.68;95584.66;5014249;28;20040;-82
2023/06/04 09:35:57;;;;;;;13.07;7.03;;;;;;;24.80;47.67;95615.47;5016829;28;20056;-81
2023/06/04 09:38:32;;;;;;;12.63;7.40;;;;;;;24.98;47.93;95631.06;5034109;28;20025;-81
2023/06/04 09:40:57;;;;;;;12.95;8.02;;;;;;;25.04;47.70;95625.34;5034186;28;20060;-81
2023/06/04 09:43:23;;;;;;;10.65;6.93;;;;;;;24.70;48.13;95607.91;5034091;28;20064;-81
2023/06/04 09:45:49;;;;;;;11.68;6.78;;;;;;;24.80;47.79;95621.69;5051479;28;20033;-82
2023/06/04 09:48:21;;;;;;;13.00;6.28;;;;;;;25.10;47.65;95626.66;5034427;28;20072;-82
2023/06/04 09:50:47;;;;;;;11.75;7.22;;;;;;;25.03;47.00;95613.72;5052540;28;20115;-82
2023/06/04 09:53:28;;;;;;;9.23;7.20;;;;;;;24.78;47.71;95577.88;5052136;28;20484;-81
2023/06/04 09:56:03;;;;;;;16.13;7.05;;;;;;;24.86;48.70;95624.94;5033779;28;20037;-82
2023/06/04 09:58:29;;;;;;;11.52;7.50;;;;;;;25.18;47.25;95622.94;5017666;28;20495;-81
2023/06/04 10:00:58;;;;;;;13.95;7.93;;;;;;;25.19;47.04;95611.72;5034069;28;20028;-81
2023/06/04 10:03:35;;;;;;;10.57;7.72;;;;;;;25.56;46.19;95624.88;5033333;28;20045;-82
2023/06/04 10:06:04;;;;;;;15.48;7.45;;;;;;;25.55;45.46;95615.19;5033155;28;20439;-81
2023/06/04 10:08:31;;;;;;;11.55;7.10;;;;;;;25.91;45.86;95617.44;5033571;28;20033;-81
2023/06/04 10:11:02;;;;;;;8.93;6.30;;;;;;;26.13;45.12;95592.22;5033289;28;20158;-82
2023/06/04 10:13:30;;;;;;;11.73;6.35;;;;;;;26.22;45.04;95597.41;5033861;28;20056;-82
2023/06/04 10:15:58;;;;;;;13.32;6.18;;;;;;;26.59;44.36;95618.63;5051775;28;20036;-82
2023/06/04 10:18:25;;;;;;;10.20;6.57;;;;;;;26.87;43.95;95616.31;5034104;28;20040;-82
2023/06/04 10:20:54;;;;;;;12.57;5.63;;;;;;;26.97;42.12;95585.78;5034153;28;20037;-81
2023/06/04 10:23:22;;;;;;;13.68;6.53;;;;;;;27.36;42.74;95618.97;5051628;28;20037;-82
2023/06/04 10:25:50;;;;;;;12.52;6.20;;;;;;;27.65;41.61;95601.81;5052435;28;20040;-82
2023/06/04 10:28:19;;;;;;;12.50;5.88;;;;;;;28.13;40.88;95614.78;5033452;28;20052;-81
2023/06/04 10:30:44;;;;;;;10.38;5.32;;;;;;;28.41;40.35;95596.75;5033594;28;20100;-81
2023/06/04 10:33:10;;;;;;;17.17;6.63;;;;;;;28.74;39.18;95595.03;5033379;28;20064;-81
2023/06/04 10:35:36;;;;;;;11.80;6.22;;;;;;;28.76;40.36;95587.28;5051017;28;20036;-82
2023/06/04 10:38:13;;;;;;;9.25;5.70;;;;;;;28.56;38.91;95581.25;5033546;28;20037;-81
2023/06/04 10:40:39;;;;;;;8.20;5.57;;;;;;;28.72;38.81;95586.44;5033762;28;20130;-82
2023/06/04 10:43:06;;;;;;;9.15;5.15;;;;;;;28.60;37.95;95605.84;5051287;28;20028;-82
2023/06/04 10:45:32;;;;;;;8.90;5.43;;;;;;;28.47;38.94;95590.91;5020174;28;20034;-82
2023/06/04 10:48:06;;;;;;;9.02;5.53;;;;;;;28.38;39.89;95615.78;5045042;28;20059;-82
2023/06/04 10:50:33;;;;;;;12.52;6.35;;;;;;;28.26;39.90;95616.09;5033328;28;20041;-81
2023/06/04 10:53:02;;;;;;;9.95;5.63;;;;;;;27.67;39.87;95549.69;5033021;28;20043;-82
2023/06/04 10:55:31;;;;;;;10.00;5.35;;;;;;;27.85;40.07;95563.47;5032864;28;20043;-82
2023/06/04 10:57:59;;;;;;;9.20;5.45;;;;;;;27.98;40.30;95605.66;5029141;28;20033;-81
2023/06/04 11:00:40;;;;;;;11.73;5.40;;;;;;;28.16;40.05;95597.66;5030645;28;20022;-82
2023/06/04 11:03:09;;;;;;;8.65;6.05;;;;;;;27.77;40.30;95561.84;5017849;28;20431;-82
2023/06/04 11:05:39;;;;;;;10.95;6.57;;;;;;;27.65;40.08;95574.56;5030500;28;20033;-82
2023/06/04 11:08:05;;;;;;;9.43;5.93;;;;;;;27.69;40.24;95610.06;5029157;28;20033;-82
2023/06/04 11:10:35;;;;;;;7.63;6.18;;;;;;;27.46;40.74;95596.53;5018166;28;20500;-82
2023/06/04 11:13:03;;;;;;;7.75;5.63;;;;;;;27.40;41.26;95591.75;5025368;28;20450;-81
2023/06/04 11:15:44;;;;;;;6.90;5.53;;;;;;;27.42;41.17;95600.34;5029144;28;20091;-81
2023/06/04 11:18:13;;;;;;;;;;;;;;;27.40;41.61;95608.88;5031000;28;20033;-82
2023/06/04 11:20:39;;;;;;;6.68;5.65;;;;;;;26.94;41.79;95542.94;5026447;28;19940;-82
2023/06/04 11:23:05;;;;;;;7.45;5.85;;;;;;;27.27;42.11;95596.66;5014527;28;20033;-82
2023/06/04 11:25:32;;;;;;;11.80;6.22;;;;;;;27.17;42.31;95594.59;5031089;28;20495;-82
2023/06/04 11:27:59;;;;;;;8.57;6.05;;;;;;;27.20;41.71;95599.28;5029154;28;20734;-82
2023/06/04 11:30:25;;;;;;;9.75;6.30;;;;;;;27.08;41.43;95583.97;5030245;28;20411;-81